createdAt,value
2019-03-04T00:01:38.762Z,8.90
2019-03-04T00:04:07.709Z,9.00
2019-03-04T00:06:36.594Z,9.10
2019-03-04T00:09:06.846Z,9.20
2019-03-04T00:11:35.815Z,9.20
2019-03-04T00:14:04.909Z,9.20
2019-03-04T00:16:33.774Z,9.20
2019-03-04T00:19:02.615Z,9.20
2019-03-04T00:21:31.600Z,9.20
2019-03-04T00:24:00.453Z,9.20
2019-03-04T00:26:29.392Z,9.10
2019-03-04T00:28:58.380Z,8.90
2019-03-04T00:31:27.394Z,9.00
2019-03-04T00:33:56.243Z,8.90
2019-03-04T00:36:25.193Z,8.90
2019-03-04T00:38:54.160Z,8.90
2019-03-04T00:41:23.266Z,8.90
2019-03-04T00:43:52.164Z,9.00
2019-03-04T00:46:21.090Z,9.00
2019-03-04T00:48:51.838Z,9.00
2019-03-04T00:51:25.048Z,9.00
2019-03-04T00:53:54.125Z,9.00
2019-03-04T00:56:23.146Z,9.10
2019-03-04T00:58:52.058Z,9.10
2019-03-04T01:01:21.183Z,9.10
2019-03-04T01:03:50.244Z,9.10
2019-03-04T01:06:19.173Z,9.00
2019-03-04T01:08:48.389Z,9.00
2019-03-04T01:11:17.366Z,8.90
2019-03-04T01:13:46.414Z,8.80
2019-03-04T01:16:15.386Z,8.80
2019-03-04T01:18:44.385Z,8.70
2019-03-04T01:21:13.225Z,8.60
2019-03-04T01:23:42.137Z,8.60
2019-03-04T01:26:11.057Z,8.50
2019-03-04T01:28:39.869Z,8.50
2019-03-04T01:31:08.797Z,8.50
2019-03-04T01:33:37.608Z,8.40
2019-03-04T01:36:06.498Z,8.40
2019-03-04T01:38:35.485Z,8.30
2019-03-04T01:41:04.784Z,8.20
2019-03-04T01:43:33.669Z,8.20
2019-03-04T01:46:02.494Z,8.20
2019-03-04T01:48:31.400Z,8.10
2019-03-04T01:51:00.253Z,8.10
2019-03-04T01:53:29.148Z,8.10
2019-03-04T01:55:58.051Z,8.10
2019-03-04T01:58:26.998Z,8.00
2019-03-04T02:00:55.907Z,7.90
2019-03-04T02:03:24.746Z,8.00
2019-03-04T02:05:53.762Z,7.90
2019-03-04T02:08:22.605Z,7.90
2019-03-04T02:10:51.437Z,7.90
2019-03-04T02:13:20.442Z,7.90
2019-03-04T02:15:49.428Z,7.90
2019-03-04T02:18:18.347Z,8.00
2019-03-04T02:20:47.322Z,8.00
2019-03-04T02:23:16.231Z,8.20
2019-03-04T02:26:18.105Z,8.30
2019-03-04T02:28:46.936Z,8.50
2019-03-04T02:31:15.927Z,8.70
2019-03-04T02:33:44.910Z,8.80
2019-03-04T02:36:13.900Z,8.90
2019-03-04T02:38:42.797Z,9.00
2019-03-04T02:41:11.673Z,9.00
2019-03-04T02:43:40.590Z,8.90
2019-03-04T02:46:09.495Z,8.90
2019-03-04T02:48:38.329Z,8.90
2019-03-04T02:51:07.318Z,8.90
2019-03-04T02:53:36.262Z,8.80
2019-03-04T02:56:05.230Z,8.70
2019-03-04T02:58:34.066Z,8.60
2019-03-04T03:01:05.423Z,8.60
2019-03-04T03:03:34.261Z,8.60
2019-03-04T03:06:03.127Z,8.60
2019-03-04T03:08:31.945Z,8.60
2019-03-04T03:11:01.427Z,8.50
2019-03-04T03:13:30.271Z,8.50
2019-03-04T03:15:59.190Z,8.40
2019-03-04T03:18:29.108Z,8.50
2019-03-04T03:20:58.098Z,8.50
2019-03-04T03:23:27.024Z,8.50
2019-03-04T03:25:55.850Z,8.30
2019-03-04T03:28:24.671Z,8.20
2019-03-04T03:30:53.610Z,8.20
2019-03-04T03:33:22.552Z,8.10
2019-03-04T03:35:51.486Z,8.00
2019-03-04T03:38:20.468Z,7.90
2019-03-04T03:40:49.334Z,7.90
2019-03-04T03:43:18.747Z,7.90
2019-03-04T03:45:47.707Z,8.00
2019-03-04T03:48:16.560Z,8.10
2019-03-04T03:50:45.484Z,8.00
2019-03-04T03:53:15.461Z,8.10
2019-03-04T03:55:44.338Z,8.10
2019-03-04T03:58:13.352Z,8.10
2019-03-04T04:00:42.194Z,8.20
2019-03-04T04:03:11.022Z,8.20
2019-03-04T04:05:39.985Z,8.20
2019-03-04T04:08:08.889Z,8.30
2019-03-04T04:10:37.700Z,8.30
2019-03-04T04:13:06.671Z,8.30
2019-03-04T04:15:35.508Z,8.40
2019-03-04T04:18:04.467Z,8.40
2019-03-04T04:20:33.370Z,8.50
2019-03-04T04:23:02.272Z,8.50
2019-03-04T04:25:31.138Z,8.60
2019-03-04T04:28:00.051Z,8.70
2019-03-04T04:30:30.731Z,8.70
2019-03-04T04:32:59.549Z,8.70
2019-03-04T04:35:28.381Z,8.80
2019-03-04T04:37:57.371Z,8.70
2019-03-04T04:40:26.291Z,8.70
2019-03-04T04:42:55.204Z,8.70
2019-03-04T04:45:24.201Z,8.70
2019-03-04T04:47:55.946Z,8.60
2019-03-04T04:50:25.333Z,8.60
2019-03-04T04:52:54.353Z,8.60
2019-03-04T04:55:23.270Z,8.60
2019-03-04T04:57:52.352Z,8.50
2019-03-04T05:00:21.333Z,8.40
2019-03-04T05:02:50.251Z,8.30
2019-03-04T05:05:19.248Z,8.30
2019-03-04T05:07:48.161Z,8.40
2019-03-04T05:10:17.867Z,8.30
2019-03-04T05:12:46.892Z,8.30
2019-03-04T05:15:16.145Z,8.20
2019-03-04T05:17:45.486Z,8.20
2019-03-04T05:20:16.929Z,8.20
2019-03-04T05:22:46.124Z,8.10
2019-03-04T05:25:15.151Z,8.00
2019-03-04T05:27:44.051Z,8.00
2019-03-04T05:30:15.616Z,8.00
2019-03-04T05:32:44.661Z,8.00
2019-03-04T05:35:13.875Z,7.90
2019-03-04T05:37:45.883Z,7.90
2019-03-04T05:40:16.152Z,8.00
2019-03-04T05:42:45.143Z,8.00
2019-03-04T05:45:15.072Z,7.90
2019-03-04T05:47:44.955Z,8.00
2019-03-04T05:50:17.390Z,8.00
2019-03-04T05:52:48.940Z,8.00
2019-03-04T05:55:17.964Z,8.10
2019-03-04T05:57:46.864Z,8.20
2019-03-04T06:00:18.257Z,8.30
2019-03-04T06:02:47.222Z,8.30
2019-03-04T06:05:16.313Z,8.40
2019-03-04T06:07:51.652Z,8.50
2019-03-04T06:10:20.712Z,8.50
2019-03-04T06:12:49.721Z,8.60
2019-03-04T06:15:22.298Z,8.60
2019-03-04T06:17:51.323Z,8.50
2019-03-04T06:20:20.380Z,8.60
2019-03-04T06:22:49.414Z,8.60
2019-03-04T06:25:20.670Z,8.60
2019-03-04T06:27:49.609Z,8.70
2019-03-04T06:30:22.944Z,8.70
2019-03-04T06:32:51.969Z,8.80
2019-03-04T06:35:20.836Z,8.90
2019-03-04T06:37:49.761Z,9.00
2019-03-04T06:40:18.769Z,9.10
2019-03-04T06:42:47.600Z,9.10
2019-03-04T06:45:16.664Z,9.20
2019-03-04T06:47:45.776Z,9.30
2019-03-04T06:51:05.329Z,9.40
2019-03-04T06:53:44.197Z,9.40
2019-03-04T06:56:40.419Z,9.50
2019-03-04T06:59:33.800Z,9.50
2019-03-04T07:02:10.194Z,9.50
2019-03-04T07:05:08.427Z,9.50
2019-03-04T07:07:37.223Z,9.60
2019-03-04T07:10:06.305Z,9.60
2019-03-04T07:12:35.881Z,9.70
2019-03-04T07:15:05.850Z,9.60
2019-03-04T07:17:34.763Z,9.60
2019-03-04T07:20:07.728Z,9.60
2019-03-04T07:22:36.789Z,9.60
2019-03-04T07:25:06.696Z,9.90
2019-03-04T07:27:35.676Z,10.20
2019-03-04T07:30:05.699Z,10.30
2019-03-04T07:32:34.783Z,10.40
2019-03-04T07:35:03.857Z,10.50
2019-03-04T07:37:33.057Z,10.70
2019-03-04T07:40:02.223Z,10.90
2019-03-04T07:42:31.414Z,11.20
2019-03-04T07:45:00.422Z,11.30
2019-03-04T07:47:29.393Z,11.50
2019-03-04T07:49:58.346Z,11.60
2019-03-04T07:52:27.298Z,11.60
2019-03-04T07:54:56.237Z,11.60
2019-03-04T07:57:25.198Z,11.60
2019-03-04T07:59:54.218Z,11.60
2019-03-04T08:02:23.233Z,11.70
2019-03-04T08:04:52.144Z,11.70
2019-03-04T08:07:43.746Z,11.60
2019-03-04T08:11:05.768Z,11.50
2019-03-04T08:13:45.447Z,11.40
2019-03-04T08:16:15.522Z,11.10
2019-03-04T08:18:44.543Z,11.00
2019-03-04T08:21:13.589Z,10.70
2019-03-04T08:23:42.728Z,10.30
2019-03-04T08:26:11.654Z,9.90
2019-03-04T08:28:40.679Z,9.70
2019-03-04T08:31:10.344Z,9.70
2019-03-04T08:33:39.218Z,9.60
2019-03-04T08:36:08.300Z,9.40
2019-03-04T08:38:37.177Z,9.40
2019-03-04T08:41:06.177Z,9.00
2019-03-04T08:43:35.220Z,8.70
2019-03-04T08:46:04.199Z,8.40
2019-03-04T08:48:33.053Z,8.20
2019-03-04T08:51:04.621Z,8.20
2019-03-04T08:53:33.519Z,8.20
2019-03-04T08:56:02.501Z,8.30
2019-03-04T08:58:31.512Z,8.40
2019-03-04T09:01:00.506Z,8.50
2019-03-04T09:03:29.439Z,8.40
2019-03-04T09:05:58.580Z,8.60
2019-03-04T09:08:27.511Z,8.70
2019-03-04T09:10:56.542Z,8.90
2019-03-04T09:13:25.548Z,9.10
2019-03-04T09:15:56.555Z,9.30
2019-03-04T09:18:25.469Z,9.30
2019-03-04T09:20:56.648Z,9.10
2019-03-04T09:23:25.601Z,9.00
2019-03-04T09:26:01.527Z,8.80
2019-03-04T09:28:30.542Z,8.70
2019-03-04T09:30:59.622Z,8.70
2019-03-04T09:33:30.639Z,8.70
2019-03-04T09:35:59.658Z,8.80
2019-03-04T09:38:28.600Z,8.90
2019-03-04T09:40:57.599Z,9.00
2019-03-04T09:43:26.601Z,9.30
2019-03-04T09:45:55.466Z,9.40
2019-03-04T09:48:24.456Z,9.60
2019-03-04T09:50:53.477Z,9.70
2019-03-04T09:53:22.474Z,9.60
2019-03-04T09:55:51.518Z,9.70
2019-03-04T09:58:20.548Z,9.80
2019-03-04T10:01:21.849Z,10.00
2019-03-04T10:04:18.587Z,10.00
2019-03-04T10:07:19.586Z,10.00
2019-03-04T10:10:03.624Z,10.00
2019-03-04T10:12:43.768Z,9.90
2019-03-04T10:15:36.774Z,9.80
2019-03-04T10:18:36.026Z,9.90
2019-03-04T10:21:43.957Z,9.70
2019-03-04T10:24:43.901Z,9.50
2019-03-04T10:27:53.013Z,9.40
2019-03-04T10:30:36.137Z,9.40
2019-03-04T10:33:45.301Z,9.40
2019-03-04T10:36:40.989Z,9.50
2019-03-04T10:40:01.841Z,9.40
2019-03-04T10:43:03.720Z,9.20
2019-03-04T10:46:12.579Z,9.20
2019-03-04T10:48:41.601Z,9.20
2019-03-04T10:51:18.656Z,9.30
2019-03-04T10:53:47.063Z,9.30
2019-03-04T10:56:16.068Z,9.20
2019-03-04T10:58:44.967Z,9.20
2019-03-04T11:01:13.992Z,9.20
2019-03-04T11:03:43.945Z,9.10
2019-03-04T11:06:12.922Z,9.20
2019-03-04T11:08:42.980Z,9.00
2019-03-04T11:11:13.037Z,9.00
2019-03-04T11:13:41.964Z,9.00
2019-03-04T11:16:10.896Z,9.00
2019-03-04T11:18:39.907Z,9.00
2019-03-04T11:21:08.909Z,9.00
2019-03-04T11:23:37.918Z,9.00
2019-03-04T11:26:07.000Z,9.00
2019-03-04T11:28:36.030Z,9.00
2019-03-04T11:31:05.123Z,9.00
2019-03-04T11:33:34.141Z,8.90
2019-03-04T11:36:03.153Z,8.80
2019-03-04T11:38:34.877Z,8.80
2019-03-04T11:41:04.081Z,8.70
2019-03-04T11:43:33.014Z,8.70
2019-03-04T11:46:02.114Z,8.70
2019-03-04T11:48:30.983Z,8.90
2019-03-04T11:50:59.999Z,8.90
2019-03-04T11:53:35.066Z,8.90
2019-03-04T11:56:04.219Z,8.90
2019-03-04T11:58:42.021Z,8.90
2019-03-04T12:01:13.943Z,8.90
2019-03-04T12:03:42.952Z,9.00
2019-03-04T12:06:11.952Z,9.00
2019-03-04T12:08:40.959Z,8.90
2019-03-04T12:11:09.958Z,8.90
2019-03-04T12:13:38.945Z,8.90
2019-03-04T12:16:09.266Z,8.90
2019-03-04T12:18:38.270Z,8.90
2019-03-04T12:21:07.352Z,8.80
2019-03-04T12:23:36.366Z,8.80
2019-03-04T12:26:08.849Z,8.70
2019-03-04T12:28:38.910Z,8.80
2019-03-04T12:31:08.555Z,8.80
2019-03-04T12:33:37.564Z,8.90
2019-03-04T12:36:08.748Z,8.80
2019-03-04T12:38:37.690Z,8.80
2019-03-04T12:41:06.701Z,8.80
2019-03-04T12:43:35.764Z,9.00
2019-03-04T12:46:04.930Z,9.00
2019-03-04T12:48:34.049Z,9.00
2019-03-04T12:51:03.137Z,9.00
2019-03-04T12:53:37.306Z,9.00
2019-03-04T12:56:03.056Z,9.20
2019-03-04T12:58:32.171Z,9.40
2019-03-04T13:01:03.202Z,9.60
2019-03-04T13:03:33.225Z,9.60
2019-03-04T13:06:03.380Z,9.50
2019-03-04T13:08:32.453Z,9.60
2019-03-04T13:11:01.509Z,9.50
2019-03-04T13:13:30.637Z,9.70
2019-03-04T13:16:02.138Z,9.70
2019-03-04T13:18:31.020Z,9.70
2019-03-04T13:21:00.042Z,9.80
2019-03-04T13:23:29.069Z,9.90
2019-03-04T13:25:58.130Z,9.90
2019-03-04T13:28:27.156Z,9.80
2019-03-04T13:30:56.270Z,9.80
2019-03-04T13:33:25.290Z,10.00
2019-03-04T13:35:54.273Z,10.00
2019-03-04T13:38:25.286Z,10.10
2019-03-04T13:40:54.280Z,10.10
2019-03-04T13:43:23.331Z,10.10
2019-03-04T13:45:52.261Z,10.00
2019-03-04T13:48:21.301Z,10.00
2019-03-04T13:50:50.310Z,10.10
2019-03-04T13:53:19.342Z,10.20
2019-03-04T13:55:48.368Z,10.20
2019-03-04T13:58:17.307Z,10.30
2019-03-04T14:00:46.526Z,10.30
2019-03-04T14:03:15.610Z,10.40
2019-03-04T14:05:45.036Z,10.60
2019-03-04T14:08:14.178Z,10.80
2019-03-04T14:10:43.338Z,10.70
2019-03-04T14:13:12.382Z,10.80
2019-03-04T14:15:41.522Z,10.70
2019-03-04T14:18:10.574Z,10.70
2019-03-04T14:20:39.665Z,10.70
2019-03-04T14:23:09.169Z,10.70
2019-03-04T14:25:38.280Z,10.70
2019-03-04T14:28:09.279Z,10.60
2019-03-04T14:30:38.330Z,10.60
2019-03-04T14:33:07.393Z,10.50
2019-03-04T14:35:36.493Z,10.40
2019-03-04T14:38:05.569Z,10.50
2019-03-04T14:40:40.442Z,10.50
2019-03-04T14:43:09.513Z,10.40
2019-03-04T14:45:38.515Z,10.50
2019-03-04T14:48:08.729Z,10.40
2019-03-04T14:50:37.760Z,10.40
2019-03-04T14:53:06.770Z,10.40
2019-03-04T14:55:35.774Z,10.40
2019-03-04T14:58:04.793Z,10.40
2019-03-04T15:00:39.168Z,10.20
2019-03-04T15:03:08.201Z,10.00
2019-03-04T15:05:37.238Z,9.90
2019-03-04T15:08:06.273Z,9.80
2019-03-04T15:10:35.284Z,9.70
2019-03-04T15:13:04.326Z,9.70
2019-03-04T15:15:40.807Z,9.50
2019-03-04T15:18:10.801Z,9.50
2019-03-04T15:20:39.730Z,9.40
2019-03-04T15:23:08.754Z,9.50
2019-03-04T15:25:37.811Z,9.50
2019-03-04T15:28:25.105Z,9.50
2019-03-04T15:31:00.566Z,9.30
2019-03-04T15:33:29.622Z,9.20
2019-03-04T15:35:58.550Z,9.10
2019-03-04T15:38:27.578Z,9.10
2019-03-04T15:40:56.628Z,9.00
2019-03-04T15:43:25.741Z,9.00
2019-03-04T15:45:55.398Z,9.00
2019-03-04T15:48:28.298Z,8.70
2019-03-04T15:50:56.675Z,8.30
2019-03-04T15:53:25.844Z,7.90
2019-03-04T15:55:55.035Z,7.50
2019-03-04T15:58:32.970Z,7.10
2019-03-04T16:01:02.467Z,6.80
2019-03-04T16:03:31.653Z,6.20
2019-03-04T16:06:01.643Z,5.90
2019-03-04T16:08:30.770Z,5.90
2019-03-04T16:10:59.867Z,5.90
2019-03-04T16:13:36.604Z,5.80
2019-03-04T16:16:06.275Z,5.70
2019-03-04T16:18:36.441Z,5.60
2019-03-04T16:21:07.290Z,5.50
2019-03-04T16:23:38.375Z,5.30
2019-03-04T16:26:13.609Z,5.30
2019-03-04T16:28:43.032Z,5.20
2019-03-04T16:31:12.939Z,5.30
2019-03-04T16:33:43.052Z,5.30
2019-03-04T16:36:15.693Z,5.30
2019-03-04T16:38:45.129Z,5.30
2019-03-04T16:41:14.391Z,5.30
2019-03-04T16:43:43.354Z,5.20
2019-03-04T16:46:19.553Z,5.20
2019-03-04T16:48:48.570Z,5.10
2019-03-04T16:51:17.609Z,5.10
2019-03-04T16:53:46.545Z,5.10
2019-03-04T16:56:15.566Z,5.10
2019-03-04T16:58:44.465Z,5.10
2019-03-04T17:01:13.495Z,5.20
2019-03-04T17:03:42.525Z,5.30
2019-03-04T17:06:11.473Z,5.20
2019-03-04T17:08:40.581Z,5.10
2019-03-04T17:11:09.704Z,5.20
2019-03-04T17:13:38.717Z,5.10
2019-03-04T17:16:08.807Z,5.20
2019-03-04T17:18:37.885Z,5.20
2019-03-04T17:21:08.523Z,5.10
2019-03-04T17:23:38.043Z,5.20
2019-03-04T17:26:07.686Z,5.20
2019-03-04T17:28:36.678Z,5.20
2019-03-04T17:31:05.810Z,5.30
2019-03-04T17:33:34.987Z,5.20
2019-03-04T17:36:04.005Z,5.00
2019-03-04T17:38:33.060Z,5.00
2019-03-04T17:41:02.120Z,5.00
2019-03-04T17:43:32.122Z,5.10
2019-03-04T17:46:01.834Z,5.10
2019-03-04T17:48:30.921Z,5.20
2019-03-04T17:51:00.130Z,5.30
2019-03-04T17:53:29.209Z,5.20
2019-03-04T17:55:58.241Z,5.10
2019-03-04T17:58:27.250Z,5.10
2019-03-04T18:00:56.481Z,5.10
2019-03-04T18:03:25.519Z,5.00
2019-03-04T18:05:55.767Z,5.00
2019-03-04T18:08:24.749Z,5.00
2019-03-04T18:10:54.806Z,5.00
2019-03-04T18:13:24.769Z,4.90
2019-03-04T18:16:00.680Z,4.70
2019-03-04T18:18:29.792Z,4.80
2019-03-04T18:20:58.821Z,4.70
2019-03-04T18:23:27.821Z,4.80
2019-03-04T18:26:24.404Z,4.70
2019-03-04T18:29:25.088Z,4.70
2019-03-04T18:32:29.334Z,4.70
2019-03-04T18:35:54.516Z,4.70
2019-03-04T18:38:46.886Z,4.60
2019-03-04T18:41:41.069Z,4.70
2019-03-04T18:44:47.729Z,4.80
2019-03-04T18:48:10.123Z,4.70
2019-03-04T18:50:40.157Z,4.90
2019-03-04T18:53:09.205Z,4.90
2019-03-04T18:55:38.361Z,4.80
2019-03-04T18:58:07.437Z,4.90
2019-03-04T19:00:36.481Z,5.00
2019-03-04T19:03:12.213Z,4.90
2019-03-04T19:05:41.210Z,4.90
2019-03-04T19:08:13.168Z,4.90
2019-03-04T19:10:52.378Z,4.90
2019-03-04T19:13:24.636Z,5.00
2019-03-04T19:15:53.656Z,4.90
2019-03-04T19:18:22.706Z,4.90
2019-03-04T19:20:51.728Z,4.80
2019-03-04T19:23:20.834Z,4.80
2019-03-04T19:25:50.934Z,4.90
2019-03-04T19:28:19.946Z,4.90
2019-03-04T19:30:48.995Z,4.90
2019-03-04T19:33:18.050Z,5.10
2019-03-04T19:35:47.004Z,5.10
2019-03-04T19:38:21.838Z,5.10
2019-03-04T19:40:50.937Z,5.10
2019-03-04T19:43:21.946Z,5.00
2019-03-04T19:45:51.038Z,5.00
2019-03-04T19:48:20.170Z,5.10
2019-03-04T19:50:49.262Z,5.00
2019-03-04T19:53:21.427Z,4.90
2019-03-04T19:55:50.562Z,4.90
2019-03-04T19:58:22.901Z,4.80
2019-03-04T20:00:54.735Z,4.70
2019-03-04T20:03:24.829Z,4.60
2019-03-04T20:05:53.881Z,4.50
2019-03-04T20:08:24.965Z,4.40
2019-03-04T20:10:54.011Z,4.20
2019-03-04T20:13:26.173Z,4.20
2019-03-04T20:15:56.305Z,4.20
2019-03-04T20:18:25.307Z,4.10
2019-03-04T20:20:54.355Z,4.10
2019-03-04T20:23:23.506Z,4.10
2019-03-04T20:25:54.676Z,4.00
2019-03-04T20:28:23.760Z,4.10
2019-03-04T20:30:52.816Z,4.20
2019-03-04T20:33:21.888Z,4.10
2019-03-04T20:35:51.212Z,4.00
2019-03-04T20:38:23.205Z,3.90
2019-03-04T20:40:52.244Z,4.00
2019-03-04T20:43:21.740Z,4.00
2019-03-04T20:45:50.864Z,3.90
2019-03-04T20:48:19.933Z,3.80
2019-03-04T20:50:49.023Z,4.00
2019-03-04T20:53:18.068Z,4.10
2019-03-04T20:55:48.158Z,3.80
2019-03-04T20:58:18.270Z,3.90
2019-03-04T21:00:47.569Z,3.90
2019-03-04T21:03:16.667Z,3.90
2019-03-04T21:05:45.773Z,3.90
2019-03-04T21:08:14.850Z,3.90
2019-03-04T21:10:51.222Z,3.90
2019-03-04T21:13:22.020Z,3.90
2019-03-04T21:15:51.050Z,4.00
2019-03-04T21:18:20.983Z,4.20
2019-03-04T21:20:50.336Z,4.20
2019-03-04T21:23:19.406Z,4.10
2019-03-04T21:26:14.817Z,4.10
2019-03-04T21:29:01.629Z,4.10
2019-03-04T21:31:40.391Z,4.10
2019-03-04T21:34:39.803Z,4.10
2019-03-04T21:37:22.256Z,4.10
2019-03-04T21:39:51.328Z,4.00
2019-03-04T21:42:44.102Z,4.10
2019-03-04T21:45:50.162Z,4.10
2019-03-04T21:48:23.665Z,4.20
2019-03-04T21:51:15.524Z,4.30
2019-03-04T21:53:46.687Z,4.50
2019-03-04T21:56:33.678Z,4.30
2019-03-04T21:59:03.054Z,4.40
2019-03-04T22:01:36.523Z,4.40
2019-03-04T22:04:05.964Z,4.40
2019-03-04T22:06:35.953Z,4.30
2019-03-04T22:09:06.693Z,4.40
2019-03-04T22:11:36.784Z,4.50
2019-03-04T22:14:06.748Z,4.50
2019-03-04T22:16:35.887Z,4.50
2019-03-04T22:19:12.791Z,4.50
2019-03-04T22:21:41.969Z,4.60
2019-03-04T22:24:11.071Z,4.50
2019-03-04T22:26:40.147Z,4.40
2019-03-04T22:29:10.089Z,4.30
2019-03-04T22:31:39.178Z,4.20
2019-03-04T22:34:08.242Z,4.10
2019-03-04T22:36:38.231Z,4.20
2019-03-04T22:39:07.938Z,4.20
2019-03-04T22:41:36.984Z,4.10
2019-03-04T22:44:06.101Z,4.10
2019-03-04T22:46:35.194Z,4.20
2019-03-04T22:49:04.275Z,4.20
2019-03-04T22:51:35.346Z,4.30
2019-03-04T22:54:23.503Z,4.20
2019-03-04T22:56:54.517Z,4.20
2019-03-04T22:59:25.538Z,3.90
2019-03-04T23:02:04.463Z,3.80
2019-03-04T23:05:00.518Z,3.70
2019-03-04T23:07:38.614Z,3.80
2019-03-04T23:10:41.532Z,3.90
2019-03-04T23:13:44.518Z,3.90
2019-03-04T23:16:17.790Z,3.80
2019-03-04T23:18:47.897Z,3.70
2019-03-04T23:21:26.086Z,3.80
2019-03-04T23:23:55.185Z,3.70
2019-03-04T23:26:24.281Z,3.60
2019-03-04T23:28:53.402Z,3.70
2019-03-04T23:31:22.464Z,3.60
2019-03-04T23:33:51.564Z,3.60
2019-03-04T23:36:20.685Z,3.60
2019-03-04T23:38:49.697Z,3.60
2019-03-04T23:41:24.705Z,3.70
2019-03-04T23:43:53.797Z,3.70
2019-03-04T23:46:22.881Z,3.80
2019-03-04T23:48:51.893Z,3.70
2019-03-04T23:51:20.912Z,3.70
2019-03-04T23:53:49.954Z,3.50
2019-03-04T23:56:19.909Z,3.60
2019-03-04T23:58:48.884Z,3.50
